sensor_id;sensor_type;location;lat;lon;timestamp;P1;durP1;ratioP1;P2;durP2;ratioP2
9140;SDS011;46330;50.822;7.126;2023-02-28T00:00:38;7.30;;;3.20;;
9140;SDS011;46330;50.822;7.126;2023-02-28T00:03:06;6.60;;;3.35;;
9140;SDS011;46330;50.822;7.126;2023-02-28T00:05:34;6.18;;;3.20;;
9140;SDS011;46330;50.822;7.126;2023-02-28T00:08:02;4.80;;;2.90;;
9140;SDS011;46330;50.822;7.126;2023-02-28T00:10:31;6.32;;;2.92;;
9140;SDS011;46330;50.822;7.126;2023-02-28T00:13:00;8.35;;;3.03;;
9140;SDS011;46330;50.822;7.126;2023-02-28T00:15:29;6.65;;;2.47;;
9140;SDS011;46330;50.822;7.126;2023-02-28T00:17:57;6.57;;;2.95;;
9140;SDS011;46330;50.822;7.126;2023-02-28T00:20:25;7.18;;;2.67;;
9140;SDS011;46330;50.822;7.126;2023-02-28T00:22:53;3.45;;;2.40;;
9140;SDS011;46330;50.822;7.126;2023-02-28T00:25:22;4.00;;;2.70;;
9140;SDS011;46330;50.822;7.126;2023-02-28T00:27:53;5.63;;;2.85;;
9140;SDS011;46330;50.822;7.126;2023-02-28T00:30:22;4.55;;;2.78;;
9140;SDS011;46330;50.822;7.126;2023-02-28T00:32:51;5.88;;;2.78;;
9140;SDS011;46330;50.822;7.126;2023-02-28T00:35:18;3.15;;;2.40;;
9140;SDS011;46330;50.822;7.126;2023-02-28T00:37:47;4.80;;;2.95;;
9140;SDS011;46330;50.822;7.126;2023-02-28T00:40:16;4.05;;;2.47;;
9140;SDS011;46330;50.822;7.126;2023-02-28T00:42:44;3.70;;;2.47;;
9140;SDS011;46330;50.822;7.126;2023-02-28T00:45:13;3.90;;;2.50;;
9140;SDS011;46330;50.822;7.126;2023-02-28T00:47:41;5.82;;;2.63;;
9140;SDS011;46330;50.822;7.126;2023-02-28T00:50:10;5.05;;;2.50;;
9140;SDS011;46330;50.822;7.126;2023-02-28T00:52:38;6.22;;;2.72;;
9140;SDS011;46330;50.822;7.126;2023-02-28T00:55:06;7.30;;;3.03;;
9140;SDS011;46330;50.822;7.126;2023-02-28T00:57:35;7.13;;;2.50;;
9140;SDS011;46330;50.822;7.126;2023-02-28T01:00:03;4.32;;;2.70;;
9140;SDS011;46330;50.822;7.126;2023-02-28T01:02:33;5.10;;;2.55;;
9140;SDS011;46330;50.822;7.126;2023-02-28T01:05:01;4.65;;;2.55;;
9140;SDS011;46330;50.822;7.126;2023-02-28T01:07:30;4.78;;;2.80;;
9140;SDS011;46330;50.822;7.126;2023-02-28T01:09:58;4.22;;;2.75;;
9140;SDS011;46330;50.822;7.126;2023-02-28T01:12:26;6.45;;;2.72;;
9140;SDS011;46330;50.822;7.126;2023-02-28T01:14:56;3.65;;;2.40;;
9140;SDS011;46330;50.822;7.126;2023-02-28T01:17:24;4.53;;;2.70;;
9140;SDS011;46330;50.822;7.126;2023-02-28T01:19:54;8.25;;;2.50;;
9140;SDS011;46330;50.822;7.126;2023-02-28T01:22:24;3.55;;;2.38;;
9140;SDS011;46330;50.822;7.126;2023-02-28T01:24:52;5.72;;;2.45;;
9140;SDS011;46330;50.822;7.126;2023-02-28T01:27:20;4.57;;;2.50;;
9140;SDS011;46330;50.822;7.126;2023-02-28T01:29:48;4.15;;;2.67;;
9140;SDS011;46330;50.822;7.126;2023-02-28T01:32:16;3.40;;;2.35;;
9140;SDS011;46330;50.822;7.126;2023-02-28T01:34:44;7.47;;;2.63;;
9140;SDS011;46330;50.822;7.126;2023-02-28T01:37:13;3.25;;;2.30;;
9140;SDS011;46330;50.822;7.126;2023-02-28T01:39:43;7.57;;;2.80;;
9140;SDS011;46330;50.822;7.126;2023-02-28T01:42:10;5.53;;;2.50;;
9140;SDS011;46330;50.822;7.126;2023-02-28T01:44:57;4.32;;;2.60;;
9140;SDS011;46330;50.822;7.126;2023-02-28T01:47:32;5.13;;;2.60;;
9140;SDS011;46330;50.822;7.126;2023-02-28T01:50:04;5.25;;;2.90;;
9140;SDS011;46330;50.822;7.126;2023-02-28T01:52:36;5.20;;;2.55;;
9140;SDS011;46330;50.822;7.126;2023-02-28T01:55:05;4.15;;;2.35;;
9140;SDS011;46330;50.822;7.126;2023-02-28T01:57:35;5.82;;;2.67;;
9140;SDS011;46330;50.822;7.126;2023-02-28T02:00:08;4.13;;;2.38;;
9140;SDS011;46330;50.822;7.126;2023-02-28T02:02:40;3.35;;;2.53;;
9140;SDS011;46330;50.822;7.126;2023-02-28T02:05:11;4.90;;;2.40;;
9140;SDS011;46330;50.822;7.126;2023-02-28T02:07:44;2.92;;;2.50;;
9140;SDS011;46330;50.822;7.126;2023-02-28T02:10:15;4.65;;;2.50;;
9140;SDS011;46330;50.822;7.126;2023-02-28T02:15:49;5.15;;;2.80;;
9140;SDS011;46330;50.822;7.126;2023-02-28T02:18:27;3.40;;;2.30;;
9140;SDS011;46330;50.822;7.126;2023-02-28T02:21:06;4.20;;;2.88;;
9140;SDS011;46330;50.822;7.126;2023-02-28T02:27:10;4.57;;;2.42;;
9140;SDS011;46330;50.822;7.126;2023-02-28T02:29:56;3.80;;;2.88;;
9140;SDS011;46330;50.822;7.126;2023-02-28T02:32:42;4.55;;;2.45;;
9140;SDS011;46330;50.822;7.126;2023-02-28T02:35:36;4.60;;;2.53;;
9140;SDS011;46330;50.822;7.126;2023-02-28T02:38:11;3.75;;;2.55;;
9140;SDS011;46330;50.822;7.126;2023-02-28T02:40:50;4.68;;;2.45;;
9140;SDS011;46330;50.822;7.126;2023-02-28T02:43:25;3.80;;;2.50;;
9140;SDS011;46330;50.822;7.126;2023-02-28T02:46:01;4.28;;;2.45;;
9140;SDS011;46330;50.822;7.126;2023-02-28T02:48:34;3.20;;;2.40;;
9140;SDS011;46330;50.822;7.126;2023-02-28T02:51:06;4.90;;;2.45;;
9140;SDS011;46330;50.822;7.126;2023-02-28T02:53:41;4.25;;;2.38;;
9140;SDS011;46330;50.822;7.126;2023-02-28T02:56:15;5.72;;;3.17;;
9140;SDS011;46330;50.822;7.126;2023-02-28T02:58:46;4.30;;;2.53;;
9140;SDS011;46330;50.822;7.126;2023-02-28T03:01:18;6.00;;;2.70;;
9140;SDS011;46330;50.822;7.126;2023-02-28T03:03:55;4.32;;;2.50;;
9140;SDS011;46330;50.822;7.126;2023-02-28T03:06:26;3.58;;;2.50;;
9140;SDS011;46330;50.822;7.126;2023-02-28T03:08:54;4.05;;;2.40;;
9140;SDS011;46330;50.822;7.126;2023-02-28T03:11:22;4.53;;;2.55;;
9140;SDS011;46330;50.822;7.126;2023-02-28T03:13:55;4.97;;;2.65;;
9140;SDS011;46330;50.822;7.126;2023-02-28T03:19:55;7.00;;;2.30;;
9140;SDS011;46330;50.822;7.126;2023-02-28T03:22:40;4.32;;;2.20;;
9140;SDS011;46330;50.822;7.126;2023-02-28T03:25:20;3.30;;;2.65;;
9140;SDS011;46330;50.822;7.126;2023-02-28T03:27:57;4.93;;;2.88;;
9140;SDS011;46330;50.822;7.126;2023-02-28T03:30:32;4.90;;;2.53;;
9140;SDS011;46330;50.822;7.126;2023-02-28T03:33:06;4.22;;;2.60;;
9140;SDS011;46330;50.822;7.126;2023-02-28T03:35:39;5.38;;;2.90;;
9140;SDS011;46330;50.822;7.126;2023-02-28T03:38:13;6.78;;;2.85;;
9140;SDS011;46330;50.822;7.126;2023-02-28T03:40:46;5.80;;;2.90;;
9140;SDS011;46330;50.822;7.126;2023-02-28T03:43:18;4.70;;;2.83;;
9140;SDS011;46330;50.822;7.126;2023-02-28T03:45:50;5.20;;;2.95;;
9140;SDS011;46330;50.822;7.126;2023-02-28T03:48:20;5.07;;;3.00;;
9140;SDS011;46330;50.822;7.126;2023-02-28T03:50:52;5.78;;;3.00;;
9140;SDS011;46330;50.822;7.126;2023-02-28T03:53:25;8.13;;;2.78;;
9140;SDS011;46330;50.822;7.126;2023-02-28T03:56:03;5.78;;;3.20;;
9140;SDS011;46330;50.822;7.126;2023-02-28T03:58:38;5.28;;;3.17;;
9140;SDS011;46330;50.822;7.126;2023-02-28T04:01:12;4.53;;;2.92;;
9140;SDS011;46330;50.822;7.126;2023-02-28T04:03:43;4.40;;;2.78;;
9140;SDS011;46330;50.822;7.126;2023-02-28T04:06:13;4.85;;;2.88;;
9140;SDS011;46330;50.822;7.126;2023-02-28T04:08:45;6.70;;;3.05;;
9140;SDS011;46330;50.822;7.126;2023-02-28T04:11:17;6.07;;;2.30;;
9140;SDS011;46330;50.822;7.126;2023-02-28T04:13:49;5.30;;;2.85;;
9140;SDS011;46330;50.822;7.126;2023-02-28T04:16:18;5.43;;;2.85;;
9140;SDS011;46330;50.822;7.126;2023-02-28T04:19:00;4.88;;;2.35;;
9140;SDS011;46330;50.822;7.126;2023-02-28T04:21:30;4.25;;;2.38;;
9140;SDS011;46330;50.822;7.126;2023-02-28T04:24:00;7.45;;;2.80;;
9140;SDS011;46330;50.822;7.126;2023-02-28T04:26:29;4.97;;;2.47;;
9140;SDS011;46330;50.822;7.126;2023-02-28T04:28:58;7.80;;;2.63;;
9140;SDS011;46330;50.822;7.126;2023-02-28T04:31:27;4.47;;;2.45;;
9140;SDS011;46330;50.822;7.126;2023-02-28T04:33:55;7.00;;;2.95;;
9140;SDS011;46330;50.822;7.126;2023-02-28T04:36:24;4.35;;;2.28;;
9140;SDS011;46330;50.822;7.126;2023-02-28T04:38:52;3.15;;;1.85;;
9140;SDS011;46330;50.822;7.126;2023-02-28T04:41:21;1.90;;;1.63;;
9140;SDS011;46330;50.822;7.126;2023-02-28T04:43:50;3.22;;;2.40;;
9140;SDS011;46330;50.822;7.126;2023-02-28T04:46:19;3.35;;;2.00;;
9140;SDS011;46330;50.822;7.126;2023-02-28T04:48:47;4.45;;;2.50;;
9140;SDS011;46330;50.822;7.126;2023-02-28T04:51:16;4.13;;;2.00;;
9140;SDS011;46330;50.822;7.126;2023-02-28T04:53:46;2.45;;;2.25;;
9140;SDS011;46330;50.822;7.126;2023-02-28T04:56:15;3.85;;;2.35;;
9140;SDS011;46330;50.822;7.126;2023-02-28T04:58:45;2.72;;;2.20;;
9140;SDS011;46330;50.822;7.126;2023-02-28T05:01:21;3.13;;;2.15;;
9140;SDS011;46330;50.822;7.126;2023-02-28T05:03:51;3.47;;;2.22;;
9140;SDS011;46330;50.822;7.126;2023-02-28T05:06:21;2.83;;;2.10;;
9140;SDS011;46330;50.822;7.126;2023-02-28T05:08:51;2.47;;;2.08;;
9140;SDS011;46330;50.822;7.126;2023-02-28T05:11:19;3.60;;;2.63;;
9140;SDS011;46330;50.822;7.126;2023-02-28T05:13:51;4.15;;;2.40;;
9140;SDS011;46330;50.822;7.126;2023-02-28T05:16:20;3.60;;;2.67;;
9140;SDS011;46330;50.822;7.126;2023-02-28T05:18:48;4.68;;;2.83;;
9140;SDS011;46330;50.822;7.126;2023-02-28T05:24:03;4.25;;;2.80;;
9140;SDS011;46330;50.822;7.126;2023-02-28T05:26:33;4.50;;;2.80;;
9140;SDS011;46330;50.822;7.126;2023-02-28T05:29:03;4.57;;;2.67;;
9140;SDS011;46330;50.822;7.126;2023-02-28T05:31:32;5.72;;;3.20;;
9140;SDS011;46330;50.822;7.126;2023-02-28T05:34:00;4.47;;;2.63;;
9140;SDS011;46330;50.822;7.126;2023-02-28T05:36:30;5.18;;;2.83;;
9140;SDS011;46330;50.822;7.126;2023-02-28T05:38:59;4.65;;;2.72;;
9140;SDS011;46330;50.822;7.126;2023-02-28T05:41:27;4.20;;;2.95;;
9140;SDS011;46330;50.822;7.126;2023-02-28T05:43:55;3.35;;;2.63;;
9140;SDS011;46330;50.822;7.126;2023-02-28T05:46:27;3.38;;;2.55;;
9140;SDS011;46330;50.822;7.126;2023-02-28T05:48:55;4.57;;;2.70;;
9140;SDS011;46330;50.822;7.126;2023-02-28T05:51:24;4.05;;;2.50;;
9140;SDS011;46330;50.822;7.126;2023-02-28T05:53:52;4.72;;;2.65;;
9140;SDS011;46330;50.822;7.126;2023-02-28T05:56:20;3.30;;;2.40;;
9140;SDS011;46330;50.822;7.126;2023-02-28T05:58:48;3.70;;;2.75;;
9140;SDS011;46330;50.822;7.126;2023-02-28T06:01:21;4.18;;;2.80;;
9140;SDS011;46330;50.822;7.126;2023-02-28T06:03:54;4.05;;;2.55;;
9140;SDS011;46330;50.822;7.126;2023-02-28T06:06:21;6.20;;;2.58;;
9140;SDS011;46330;50.822;7.126;2023-02-28T06:08:49;15.77;;;2.88;;
9140;SDS011;46330;50.822;7.126;2023-02-28T06:11:17;4.40;;;2.67;;
9140;SDS011;46330;50.822;7.126;2023-02-28T06:13:46;4.65;;;2.63;;
9140;SDS011;46330;50.822;7.126;2023-02-28T06:16:15;5.05;;;2.90;;
9140;SDS011;46330;50.822;7.126;2023-02-28T06:18:42;6.05;;;3.47;;
9140;SDS011;46330;50.822;7.126;2023-02-28T06:21:13;5.03;;;3.38;;
9140;SDS011;46330;50.822;7.126;2023-02-28T06:23:41;5.38;;;3.30;;
9140;SDS011;46330;50.822;7.126;2023-02-28T06:26:09;4.88;;;2.75;;
9140;SDS011;46330;50.822;7.126;2023-02-28T06:28:37;5.68;;;3.30;;
9140;SDS011;46330;50.822;7.126;2023-02-28T06:31:05;4.93;;;3.28;;
9140;SDS011;46330;50.822;7.126;2023-02-28T06:33:35;4.55;;;3.33;;
9140;SDS011;46330;50.822;7.126;2023-02-28T06:36:04;8.25;;;4.32;;
9140;SDS011;46330;50.822;7.126;2023-02-28T06:38:34;6.35;;;3.55;;
9140;SDS011;46330;50.822;7.126;2023-02-28T06:41:03;5.32;;;3.53;;
9140;SDS011;46330;50.822;7.126;2023-02-28T06:43:32;4.18;;;3.10;;
9140;SDS011;46330;50.822;7.126;2023-02-28T06:46:05;6.57;;;3.08;;
9140;SDS011;46330;50.822;7.126;2023-02-28T06:48:34;4.43;;;2.90;;
9140;SDS011;46330;50.822;7.126;2023-02-28T06:51:03;5.15;;;3.08;;
9140;SDS011;46330;50.822;7.126;2023-02-28T06:53:32;3.78;;;2.63;;
9140;SDS011;46330;50.822;7.126;2023-02-28T06:56:03;5.40;;;3.17;;
9140;SDS011;46330;50.822;7.126;2023-02-28T06:58:32;5.45;;;3.20;;
9140;SDS011;46330;50.822;7.126;2023-02-28T07:01:00;4.53;;;2.95;;
9140;SDS011;46330;50.822;7.126;2023-02-28T07:03:28;4.70;;;2.92;;
9140;SDS011;46330;50.822;7.126;2023-02-28T07:05:59;3.85;;;2.83;;
9140;SDS011;46330;50.822;7.126;2023-02-28T07:08:29;3.88;;;2.90;;
9140;SDS011;46330;50.822;7.126;2023-02-28T07:10:59;4.75;;;2.95;;
9140;SDS011;46330;50.822;7.126;2023-02-28T07:13:27;5.90;;;4.32;;
9140;SDS011;46330;50.822;7.126;2023-02-28T07:15:56;6.10;;;5.00;;
9140;SDS011;46330;50.822;7.126;2023-02-28T07:18:24;6.88;;;5.47;;
9140;SDS011;46330;50.822;7.126;2023-02-28T07:20:52;7.65;;;6.95;;
9140;SDS011;46330;50.822;7.126;2023-02-28T07:23:21;10.70;;;9.70;;
9140;SDS011;46330;50.822;7.126;2023-02-28T07:25:49;9.63;;;8.93;;
9140;SDS011;46330;50.822;7.126;2023-02-28T07:28:20;10.88;;;9.77;;
9140;SDS011;46330;50.822;7.126;2023-02-28T07:30:47;9.52;;;8.77;;
9140;SDS011;46330;50.822;7.126;2023-02-28T07:33:16;11.15;;;10.13;;
9140;SDS011;46330;50.822;7.126;2023-02-28T07:35:45;16.80;;;15.63;;
9140;SDS011;46330;50.822;7.126;2023-02-28T07:38:13;10.55;;;9.65;;
9140;SDS011;46330;50.822;7.126;2023-02-28T07:40:41;8.32;;;7.57;;
9140;SDS011;46330;50.822;7.126;2023-02-28T07:43:09;9.23;;;8.52;;
9140;SDS011;46330;50.822;7.126;2023-02-28T07:45:38;6.93;;;3.78;;
9140;SDS011;46330;50.822;7.126;2023-02-28T07:48:06;3.47;;;2.53;;
9140;SDS011;46330;50.822;7.126;2023-02-28T07:50:36;3.63;;;2.50;;
9140;SDS011;46330;50.822;7.126;2023-02-28T07:53:04;4.18;;;2.58;;
9140;SDS011;46330;50.822;7.126;2023-02-28T07:55:32;3.55;;;2.50;;
9140;SDS011;46330;50.822;7.126;2023-02-28T07:58:00;3.00;;;2.40;;
9140;SDS011;46330;50.822;7.126;2023-02-28T08:00:28;4.68;;;2.63;;
9140;SDS011;46330;50.822;7.126;2023-02-28T08:02:59;4.47;;;2.65;;
9140;SDS011;46330;50.822;7.126;2023-02-28T08:05:27;3.47;;;2.30;;
9140;SDS011;46330;50.822;7.126;2023-02-28T08:07:56;2.63;;;2.03;;
9140;SDS011;46330;50.822;7.126;2023-02-28T08:10:24;2.30;;;2.00;;
9140;SDS011;46330;50.822;7.126;2023-02-28T08:12:52;3.20;;;2.40;;
9140;SDS011;46330;50.822;7.126;2023-02-28T08:15:20;3.90;;;2.20;;
9140;SDS011;46330;50.822;7.126;2023-02-28T08:17:48;3.72;;;2.40;;
9140;SDS011;46330;50.822;7.126;2023-02-28T08:20:17;2.95;;;2.20;;
9140;SDS011;46330;50.822;7.126;2023-02-28T08:22:45;2.08;;;1.83;;
9140;SDS011;46330;50.822;7.126;2023-02-28T08:25:13;4.20;;;2.15;;
9140;SDS011;46330;50.822;7.126;2023-02-28T08:27:41;2.97;;;1.92;;
9140;SDS011;46330;50.822;7.126;2023-02-28T08:30:10;4.07;;;2.20;;
9140;SDS011;46330;50.822;7.126;2023-02-28T08:32:39;2.70;;;2.28;;
9140;SDS011;46330;50.822;7.126;2023-02-28T08:35:08;2.65;;;1.80;;
9140;SDS011;46330;50.822;7.126;2023-02-28T08:37:38;3.78;;;1.98;;
9140;SDS011;46330;50.822;7.126;2023-02-28T08:40:06;3.42;;;2.20;;
9140;SDS011;46330;50.822;7.126;2023-02-28T08:42:35;3.17;;;2.05;;
9140;SDS011;46330;50.822;7.126;2023-02-28T08:45:04;2.22;;;1.67;;
9140;SDS011;46330;50.822;7.126;2023-02-28T08:47:32;2.60;;;1.95;;
9140;SDS011;46330;50.822;7.126;2023-02-28T08:50:00;3.15;;;1.80;;
9140;SDS011;46330;50.822;7.126;2023-02-28T08:52:28;2.00;;;1.67;;
9140;SDS011;46330;50.822;7.126;2023-02-28T08:54:58;2.72;;;2.00;;
9140;SDS011;46330;50.822;7.126;2023-02-28T08:57:26;3.47;;;2.03;;
9140;SDS011;46330;50.822;7.126;2023-02-28T08:59:53;3.65;;;2.00;;
9140;SDS011;46330;50.822;7.126;2023-02-28T09:02:21;3.80;;;2.00;;
9140;SDS011;46330;50.822;7.126;2023-02-28T09:04:50;2.97;;;2.10;;
9140;SDS011;46330;50.822;7.126;2023-02-28T09:07:18;3.40;;;1.80;;
9140;SDS011;46330;50.822;7.126;2023-02-28T09:09:46;2.22;;;1.80;;
9140;SDS011;46330;50.822;7.126;2023-02-28T09:12:22;2.58;;;2.00;;
9140;SDS011;46330;50.822;7.126;2023-02-28T09:14:51;2.28;;;1.95;;
9140;SDS011;46330;50.822;7.126;2023-02-28T09:17:20;2.15;;;1.60;;
9140;SDS011;46330;50.822;7.126;2023-02-28T09:19:48;1.75;;;1.50;;
9140;SDS011;46330;50.822;7.126;2023-02-28T09:22:16;2.60;;;1.75;;
9140;SDS011;46330;50.822;7.126;2023-02-28T09:24:44;3.45;;;1.85;;
9140;SDS011;46330;50.822;7.126;2023-02-28T09:27:12;3.28;;;2.47;;
9140;SDS011;46330;50.822;7.126;2023-02-28T09:29:42;4.13;;;2.28;;
9140;SDS011;46330;50.822;7.126;2023-02-28T09:32:10;3.22;;;2.20;;
9140;SDS011;46330;50.822;7.126;2023-02-28T09:34:38;3.67;;;2.08;;
9140;SDS011;46330;50.822;7.126;2023-02-28T09:37:06;2.55;;;1.90;;
9140;SDS011;46330;50.822;7.126;2023-02-28T09:39:35;2.92;;;1.92;;
9140;SDS011;46330;50.822;7.126;2023-02-28T09:42:03;4.00;;;2.00;;
9140;SDS011;46330;50.822;7.126;2023-02-28T09:44:35;2.30;;;1.88;;
9140;SDS011;46330;50.822;7.126;2023-02-28T09:47:07;3.17;;;1.90;;
9140;SDS011;46330;50.822;7.126;2023-02-28T09:49:40;3.88;;;1.73;;
9140;SDS011;46330;50.822;7.126;2023-02-28T09:52:10;3.20;;;1.90;;
9140;SDS011;46330;50.822;7.126;2023-02-28T09:54:42;2.15;;;1.90;;
9140;SDS011;46330;50.822;7.126;2023-02-28T09:57:13;1.92;;;1.73;;
9140;SDS011;46330;50.822;7.126;2023-02-28T09:59:52;2.20;;;1.70;;
9140;SDS011;46330;50.822;7.126;2023-02-28T10:05:31;5.63;;;1.95;;
9140;SDS011;46330;50.822;7.126;2023-02-28T10:08:05;2.22;;;1.67;;
9140;SDS011;46330;50.822;7.126;2023-02-28T10:10:39;3.90;;;1.85;;
9140;SDS011;46330;50.822;7.126;2023-02-28T10:13:14;2.53;;;1.95;;
9140;SDS011;46330;50.822;7.126;2023-02-28T10:15:48;5.05;;;2.72;;
9140;SDS011;46330;50.822;7.126;2023-02-28T10:18:22;5.32;;;2.35;;
9140;SDS011;46330;50.822;7.126;2023-02-28T10:20:54;2.30;;;1.70;;
9140;SDS011;46330;50.822;7.126;2023-02-28T10:23:24;2.90;;;1.98;;
9140;SDS011;46330;50.822;7.126;2023-02-28T10:25:57;3.72;;;2.10;;
9140;SDS011;46330;50.822;7.126;2023-02-28T10:28:29;3.97;;;1.80;;
9140;SDS011;46330;50.822;7.126;2023-02-28T10:30:58;3.15;;;1.90;;
9140;SDS011;46330;50.822;7.126;2023-02-28T10:33:29;2.42;;;1.70;;
9140;SDS011;46330;50.822;7.126;2023-02-28T10:36:00;3.35;;;1.73;;
9140;SDS011;46330;50.822;7.126;2023-02-28T10:38:32;1.77;;;1.60;;
9140;SDS011;46330;50.822;7.126;2023-02-28T10:41:05;1.98;;;1.77;;
9140;SDS011;46330;50.822;7.126;2023-02-28T10:43:34;2.10;;;1.70;;
9140;SDS011;46330;50.822;7.126;2023-02-28T10:46:04;2.22;;;1.80;;
9140;SDS011;46330;50.822;7.126;2023-02-28T10:48:43;2.80;;;1.80;;
9140;SDS011;46330;50.822;7.126;2023-02-28T10:51:15;2.78;;;1.73;;
9140;SDS011;46330;50.822;7.126;2023-02-28T10:53:47;2.88;;;2.20;;
9140;SDS011;46330;50.822;7.126;2023-02-28T10:56:28;2.53;;;2.10;;
9140;SDS011;46330;50.822;7.126;2023-02-28T10:58:58;3.47;;;2.08;;
9140;SDS011;46330;50.822;7.126;2023-02-28T11:01:35;2.95;;;1.83;;
9140;SDS011;46330;50.822;7.126;2023-02-28T11:04:17;2.40;;;1.85;;
9140;SDS011;46330;50.822;7.126;2023-02-28T11:06:51;3.33;;;2.30;;
9140;SDS011;46330;50.822;7.126;2023-02-28T11:09:27;3.85;;;2.35;;
9140;SDS011;46330;50.822;7.126;2023-02-28T11:11:57;2.88;;;1.70;;
9140;SDS011;46330;50.822;7.126;2023-02-28T11:14:27;1.90;;;1.70;;
9140;SDS011;46330;50.822;7.126;2023-02-28T11:16:58;2.70;;;1.92;;
9140;SDS011;46330;50.822;7.126;2023-02-28T11:19:31;3.67;;;1.90;;
9140;SDS011;46330;50.822;7.126;2023-02-28T11:22:06;2.33;;;1.77;;
9140;SDS011;46330;50.822;7.126;2023-02-28T11:24:40;4.35;;;2.03;;
9140;SDS011;46330;50.822;7.126;2023-02-28T11:27:24;3.45;;;2.15;;
9140;SDS011;46330;50.822;7.126;2023-02-28T11:29:57;1.92;;;1.58;;
9140;SDS011;46330;50.822;7.126;2023-02-28T11:32:31;2.50;;;2.10;;
9140;SDS011;46330;50.822;7.126;2023-02-28T11:35:10;2.97;;;2.00;;
9140;SDS011;46330;50.822;7.126;2023-02-28T11:37:44;2.58;;;1.75;;
9140;SDS011;46330;50.822;7.126;2023-02-28T11:40:13;3.47;;;2.10;;
9140;SDS011;46330;50.822;7.126;2023-02-28T11:42:45;1.67;;;1.52;;
9140;SDS011;46330;50.822;7.126;2023-02-28T11:45:28;2.28;;;2.00;;
9140;SDS011;46330;50.822;7.126;2023-02-28T11:48:11;4.65;;;2.10;;
9140;SDS011;46330;50.822;7.126;2023-02-28T11:53:35;2.03;;;1.80;;
9140;SDS011;46330;50.822;7.126;2023-02-28T11:56:15;4.13;;;1.90;;
9140;SDS011;46330;50.822;7.126;2023-02-28T11:58:53;4.72;;;2.22;;
9140;SDS011;46330;50.822;7.126;2023-02-28T12:01:32;3.60;;;2.28;;
9140;SDS011;46330;50.822;7.126;2023-02-28T12:04:21;2.58;;;1.88;;
9140;SDS011;46330;50.822;7.126;2023-02-28T12:06:57;3.10;;;2.20;;
9140;SDS011;46330;50.822;7.126;2023-02-28T12:09:38;5.53;;;3.80;;
9140;SDS011;46330;50.822;7.126;2023-02-28T12:12:15;2.88;;;2.15;;
9140;SDS011;46330;50.822;7.126;2023-02-28T12:18:04;3.00;;;2.30;;
9140;SDS011;46330;50.822;7.126;2023-02-28T12:20:49;15.05;;;9.32;;
9140;SDS011;46330;50.822;7.126;2023-02-28T12:23:33;3.97;;;2.50;;
9140;SDS011;46330;50.822;7.126;2023-02-28T12:26:16;4.20;;;2.33;;
9140;SDS011;46330;50.822;7.126;2023-02-28T12:28:51;4.32;;;2.45;;
9140;SDS011;46330;50.822;7.126;2023-02-28T12:31:23;4.78;;;2.45;;
9140;SDS011;46330;50.822;7.126;2023-02-28T12:33:55;3.30;;;2.15;;
9140;SDS011;46330;50.822;7.126;2023-02-28T12:36:28;3.25;;;2.00;;
9140;SDS011;46330;50.822;7.126;2023-02-28T12:39:00;2.67;;;2.03;;
9140;SDS011;46330;50.822;7.126;2023-02-28T12:41:33;5.18;;;2.30;;
9140;SDS011;46330;50.822;7.126;2023-02-28T12:44:06;5.38;;;2.83;;
9140;SDS011;46330;50.822;7.126;2023-02-28T12:46:38;7.32;;;4.55;;
9140;SDS011;46330;50.822;7.126;2023-02-28T12:49:10;6.20;;;4.40;;
9140;SDS011;46330;50.822;7.126;2023-02-28T12:51:43;3.35;;;2.25;;
9140;SDS011;46330;50.822;7.126;2023-02-28T12:54:16;3.55;;;2.15;;
9140;SDS011;46330;50.822;7.126;2023-02-28T12:56:54;16.52;;;11.30;;
9140;SDS011;46330;50.822;7.126;2023-02-28T12:59:32;3.83;;;2.65;;
9140;SDS011;46330;50.822;7.126;2023-02-28T13:11:40;3.17;;;2.55;;
9140;SDS011;46330;50.822;7.126;2023-02-28T13:14:18;5.57;;;3.63;;
9140;SDS011;46330;50.822;7.126;2023-02-28T13:19:39;5.20;;;3.72;;
9140;SDS011;46330;50.822;7.126;2023-02-28T13:22:17;12.75;;;9.75;;
9140;SDS011;46330;50.822;7.126;2023-02-28T13:24:47;12.57;;;8.85;;
9140;SDS011;46330;50.822;7.126;2023-02-28T13:33:22;15.52;;;11.27;;
9140;SDS011;46330;50.822;7.126;2023-02-28T13:36:10;9.32;;;7.40;;
9140;SDS011;46330;50.822;7.126;2023-02-28T13:38:50;4.32;;;2.80;;
9140;SDS011;46330;50.822;7.126;2023-02-28T13:44:17;5.07;;;3.05;;
9140;SDS011;46330;50.822;7.126;2023-02-28T13:49:47;3.00;;;2.58;;
9140;SDS011;46330;50.822;7.126;2023-02-28T13:52:18;4.72;;;3.08;;
9140;SDS011;46330;50.822;7.126;2023-02-28T13:54:52;6.60;;;2.92;;
9140;SDS011;46330;50.822;7.126;2023-02-28T13:57:41;5.57;;;3.05;;
9140;SDS011;46330;50.822;7.126;2023-02-28T14:00:23;5.40;;;3.30;;
9140;SDS011;46330;50.822;7.126;2023-02-28T14:03:10;5.65;;;3.63;;
9140;SDS011;46330;50.822;7.126;2023-02-28T14:05:46;6.40;;;3.10;;
9140;SDS011;46330;50.822;7.126;2023-02-28T14:08:16;5.57;;;3.08;;
9140;SDS011;46330;50.822;7.126;2023-02-28T14:10:49;4.43;;;3.13;;
9140;SDS011;46330;50.822;7.126;2023-02-28T14:13:38;5.43;;;3.15;;
9140;SDS011;46330;50.822;7.126;2023-02-28T14:16:13;5.60;;;3.10;;
9140;SDS011;46330;50.822;7.126;2023-02-28T14:18:47;4.50;;;3.30;;
9140;SDS011;46330;50.822;7.126;2023-02-28T14:21:21;4.18;;;3.05;;
9140;SDS011;46330;50.822;7.126;2023-02-28T14:26:56;7.07;;;3.70;;
9140;SDS011;46330;50.822;7.126;2023-02-28T14:29:36;4.82;;;3.03;;
9140;SDS011;46330;50.822;7.126;2023-02-28T14:32:18;6.10;;;3.38;;
9140;SDS011;46330;50.822;7.126;2023-02-28T14:34:55;5.10;;;3.63;;
9140;SDS011;46330;50.822;7.126;2023-02-28T14:37:32;6.90;;;4.20;;
9140;SDS011;46330;50.822;7.126;2023-02-28T14:40:04;5.93;;;4.07;;
9140;SDS011;46330;50.822;7.126;2023-02-28T14:45:16;5.70;;;2.92;;
9140;SDS011;46330;50.822;7.126;2023-02-28T14:47:47;4.68;;;3.40;;
9140;SDS011;46330;50.822;7.126;2023-02-28T14:50:17;5.80;;;3.28;;
9140;SDS011;46330;50.822;7.126;2023-02-28T14:52:47;5.85;;;3.10;;
9140;SDS011;46330;50.822;7.126;2023-02-28T14:55:19;5.18;;;3.40;;
9140;SDS011;46330;50.822;7.126;2023-02-28T14:57:54;4.82;;;3.42;;
9140;SDS011;46330;50.822;7.126;2023-02-28T15:00:25;5.80;;;3.38;;
9140;SDS011;46330;50.822;7.126;2023-02-28T15:02:55;4.00;;;3.05;;
9140;SDS011;46330;50.822;7.126;2023-02-28T15:05:26;7.18;;;3.25;;
9140;SDS011;46330;50.822;7.126;2023-02-28T15:08:03;5.43;;;3.30;;
9140;SDS011;46330;50.822;7.126;2023-02-28T15:10:33;4.65;;;3.42;;
9140;SDS011;46330;50.822;7.126;2023-02-28T15:13:02;5.22;;;3.38;;
9140;SDS011;46330;50.822;7.126;2023-02-28T15:15:40;5.60;;;3.30;;
9140;SDS011;46330;50.822;7.126;2023-02-28T15:18:30;5.60;;;3.43;;
9140;SDS011;46330;50.822;7.126;2023-02-28T15:21:06;6.32;;;3.50;;
9140;SDS011;46330;50.822;7.126;2023-02-28T15:23:38;6.15;;;3.50;;
9140;SDS011;46330;50.822;7.126;2023-02-28T15:26:10;6.55;;;3.25;;
9140;SDS011;46330;50.822;7.126;2023-02-28T15:28:41;5.75;;;3.40;;
9140;SDS011;46330;50.822;7.126;2023-02-28T15:31:18;4.93;;;3.50;;
9140;SDS011;46330;50.822;7.126;2023-02-28T15:33:54;5.53;;;3.70;;
9140;SDS011;46330;50.822;7.126;2023-02-28T15:36:25;5.20;;;3.47;;
9140;SDS011;46330;50.822;7.126;2023-02-28T15:38:56;5.97;;;3.47;;
9140;SDS011;46330;50.822;7.126;2023-02-28T15:41:40;6.35;;;3.60;;
9140;SDS011;46330;50.822;7.126;2023-02-28T15:44:15;6.85;;;3.33;;
9140;SDS011;46330;50.822;7.126;2023-02-28T15:46:54;4.68;;;3.15;;
9140;SDS011;46330;50.822;7.126;2023-02-28T15:49:27;4.63;;;3.42;;
9140;SDS011;46330;50.822;7.126;2023-02-28T15:52:00;7.43;;;3.50;;
9140;SDS011;46330;50.822;7.126;2023-02-28T15:54:29;6.35;;;3.42;;
9140;SDS011;46330;50.822;7.126;2023-02-28T15:57:03;4.85;;;3.28;;
9140;SDS011;46330;50.822;7.126;2023-02-28T15:59:35;6.63;;;3.67;;
9140;SDS011;46330;50.822;7.126;2023-02-28T16:02:15;5.35;;;3.28;;
9140;SDS011;46330;50.822;7.126;2023-02-28T16:07:54;4.72;;;3.30;;
9140;SDS011;46330;50.822;7.126;2023-02-28T16:10:22;6.45;;;3.80;;
9140;SDS011;46330;50.822;7.126;2023-02-28T16:12:52;6.10;;;3.50;;
9140;SDS011;46330;50.822;7.126;2023-02-28T16:15:22;4.82;;;3.28;;
9140;SDS011;46330;50.822;7.126;2023-02-28T16:17:53;5.68;;;3.55;;
9140;SDS011;46330;50.822;7.126;2023-02-28T16:20:24;6.70;;;3.50;;
9140;SDS011;46330;50.822;7.126;2023-02-28T16:22:53;5.03;;;3.42;;